Time;durP1;ratioP1;P1;durP2;ratioP2;P2;SDS_P1;SDS_P2;PMS_P1;PMS_P2;Temp;Humidity;BMP_temperature;BMP_pressure;BME280_temperature;BME280_humidity;BME280_pressure;Samples;Min_cycle;Max_cycle;Signal;HPM_P1;HPM_P2
2021/11/10 00:01:31;;;;;;;42.58;23.48;;;;;;;;;;5049723;28;20017;-67
2021/11/10 00:03:57;;;;;;;43.65;25.50;;;;;;;;;;5050646;28;20021;-67
2021/11/10 00:06:23;;;;;;;42.22;25.45;;;;;;;;;;5049717;28;20139;-67
2021/11/10 00:08:49;;;;;;;41.80;24.15;;;;;;;;;;5049975;28;20048;-67
2021/11/10 00:11:16;;;;;;;41.40;23.38;;;;;;;;;;5051162;28;20021;-67
2021/11/10 00:13:42;;;;;;;40.08;23.55;;;;;;;;;;5050549;28;20564;-67
2021/11/10 00:16:08;;;;;;;45.67;26.52;;;;;;;;;;5050865;28;20025;-67
2021/11/10 00:18:34;;;;;;;41.90;26.17;;;;;;;;;;5049246;28;20495;-67
2021/11/10 00:20:59;;;;;;;40.45;24.45;;;;;;;;;;5050943;28;20092;-66
2021/11/10 00:23:25;;;;;;;43.22;25.50;;;;;;;;;;5050400;28;20049;-67
2021/11/10 00:25:51;;;;;;;40.35;24.00;;;;;;;;;;5051196;28;20147;-67
2021/11/10 00:28:17;;;;;;;40.63;23.30;;;;;;;;;;5033121;28;20032;-67
2021/11/10 00:30:43;;;;;;;41.67;24.65;;;;;;;;;;5051022;28;20029;-67
2021/11/10 00:33:09;;;;;;;39.50;24.88;;;;;;;;;;5050296;28;20088;-67
2021/11/10 00:35:35;;;;;;;37.53;24.98;;;;;;;;;;5050070;28;20059;-67
2021/11/10 00:38:01;;;;;;;44.67;26.73;;;;;;;;;;5050978;28;20033;-67
2021/11/10 00:40:27;;;;;;;41.78;25.15;;;;;;;;;;5053067;28;20033;-67
2021/11/10 00:42:53;;;;;;;37.55;23.75;;;;;;;;;;5054210;28;20479;-67
2021/11/10 00:45:19;;;;;;;37.47;24.33;;;;;;;;;;5053446;28;20025;-67
2021/11/10 00:47:45;;;;;;;38.55;22.65;;;;;;;;;;5054746;28;20036;-67
2021/11/10 00:50:12;;;;;;;36.30;22.05;;;;;;;;;;5054443;28;20029;-67
2021/11/10 00:52:37;;;;;;;37.40;22.30;;;;;;;;;;5053743;28;20032;-67
2021/11/10 00:55:04;;;;;;;32.45;21.05;;;;;;;;;;5054616;28;20047;-67
2021/11/10 00:57:30;;;;;;;38.38;21.35;;;;;;;;;;5053383;28;20049;-67
2021/11/10 00:59:56;;;;;;;35.10;20.92;;;;;;;;;;5054502;28;20029;-67
2021/11/10 01:02:22;;;;;;;41.78;24.17;;;;;;;;;;5053376;28;20048;-67
2021/11/10 01:04:48;;;;;;;36.55;23.40;;;;;;;;;;5054378;28;20088;-67
2021/11/10 01:07:16;;;;;;;36.00;22.23;;;;;;;;;;5053296;28;20043;-67
2021/11/10 01:09:44;;;;;;;38.97;24.25;;;;;;;;;;5053158;28;20104;-67
2021/11/10 01:12:11;;;;;;;36.35;23.67;;;;;;;;;;5053435;28;20025;-67
2021/11/10 01:14:38;;;;;;;37.78;21.20;;;;;;;;;;5054409;28;20482;-67
2021/11/10 01:17:04;;;;;;;41.83;23.55;;;;;;;;;;5054439;28;20020;-67
2021/11/10 01:19:30;;;;;;;41.38;22.80;;;;;;;;;;5054061;28;20056;-67
2021/11/10 01:21:56;;;;;;;39.95;22.05;;;;;;;;;;5054015;28;20098;-67
2021/11/10 01:24:22;;;;;;;39.47;23.20;;;;;;;;;;5053404;28;20037;-67
2021/11/10 01:26:48;;;;;;;41.95;24.75;;;;;;;;;;5046291;28;20548;-66
2021/11/10 01:29:14;;;;;;;38.72;24.52;;;;;;;;;;5054159;28;20029;-67
2021/11/10 01:31:40;;;;;;;38.63;23.27;;;;;;;;;;5054230;28;20502;-67
2021/11/10 01:34:09;;;;;;;40.03;23.20;;;;;;;;;;5053738;28;20035;-67
2021/11/10 01:36:36;;;;;;;36.88;21.38;;;;;;;;;;5054127;28;20021;-67
2021/11/10 01:39:04;;;;;;;39.25;22.52;;;;;;;;;;5053915;28;20041;-67
2021/11/10 01:41:30;;;;;;;37.47;23.17;;;;;;;;;;5052326;28;20479;-67
2021/11/10 01:43:56;;;;;;;37.05;21.77;;;;;;;;;;5052729;28;20029;-67
2021/11/10 01:46:22;;;;;;;42.53;22.83;;;;;;;;;;5051997;28;20059;-66
2021/11/10 01:48:47;;;;;;;37.35;22.02;;;;;;;;;;5053223;28;20017;-67
2021/11/10 01:51:13;;;;;;;36.15;23.20;;;;;;;;;;5052817;28;20544;-67
2021/11/10 01:53:39;;;;;;;41.72;25.10;;;;;;;;;;5052447;28;20078;-67
2021/11/10 01:56:06;;;;;;;40.95;23.88;;;;;;;;;;5052962;28;20025;-67
2021/11/10 01:58:32;;;;;;;41.92;23.95;;;;;;;;;;5053105;28;20197;-67
2021/11/10 02:00:58;;;;;;;45.50;25.77;;;;;;;;;;5053065;28;20163;-67
2021/11/10 02:03:24;;;;;;;42.10;24.13;;;;;;;;;;5052216;28;20060;-67
2021/11/10 02:05:50;;;;;;;42.10;24.80;;;;;;;;;;5053234;28;20540;-67
2021/11/10 02:08:16;;;;;;;41.78;24.27;;;;;;;;;;5053187;28;20021;-67
2021/11/10 02:10:42;;;;;;;39.20;22.33;;;;;;;;;;5053341;28;20095;-67
2021/11/10 02:13:08;;;;;;;36.08;22.17;;;;;;;;;;5051514;28;20021;-67
2021/11/10 02:15:35;;;;;;;35.80;21.08;;;;;;;;;;5053026;28;20040;-67
2021/11/10 02:18:04;;;;;;;39.72;22.13;;;;;;;;;;5053147;28;20039;-67
2021/11/10 02:20:31;;;;;;;38.00;21.23;;;;;;;;;;5052897;28;20055;-67
2021/11/10 02:22:57;;;;;;;47.88;22.45;;;;;;;;;;5052170;28;20031;-68
2021/11/10 02:25:23;;;;;;;33.17;20.15;;;;;;;;;;5052896;28;20017;-66
2021/11/10 02:27:49;;;;;;;36.95;22.00;;;;;;;;;;5039098;28;20028;-66
2021/11/10 02:30:19;;;;;;;30.58;19.67;;;;;;;;;;5048933;28;20037;-66
2021/11/10 02:32:49;;;;;;;26.67;15.60;;;;;;;;;;5036042;28;20475;-67
2021/11/10 02:35:17;;;;;;;34.80;21.38;;;;;;;;;;5052770;28;20621;-67
2021/11/10 02:37:43;;;;;;;39.50;23.00;;;;;;;;;;5052714;28;20028;-67
2021/11/10 02:40:09;;;;;;;36.58;20.85;;;;;;;;;;5052503;28;20051;-67
2021/11/10 02:42:35;;;;;;;39.20;22.20;;;;;;;;;;5050243;28;20029;-67
2021/11/10 02:45:01;;;;;;;41.25;22.52;;;;;;;;;;5052454;28;20028;-67
2021/11/10 02:47:27;;;;;;;38.72;21.33;;;;;;;;;;5052509;28;20023;-66
2021/11/10 02:49:53;;;;;;;43.17;22.48;;;;;;;;;;5052514;28;20025;-66
2021/11/10 02:52:20;;;;;;;35.72;21.13;;;;;;;;;;5051585;28;20032;-66
2021/11/10 02:54:51;;;;;;;42.67;22.50;;;;;;;;;;5051249;28;20048;-66
2021/11/10 02:57:17;;;;;;;39.95;22.90;;;;;;;;;;5052385;28;20013;-66
2021/11/10 02:59:44;;;;;;;43.63;22.08;;;;;;;;;;5052316;28;20029;-66
2021/11/10 03:02:10;;;;;;;43.85;23.77;;;;;;;;;;5050313;28;20083;-66
2021/11/10 03:04:37;;;;;;;41.25;22.50;;;;;;;;;;5037031;28;20029;-66
2021/11/10 03:07:04;;;;;;;44.70;24.15;;;;;;;;;;5052246;28;20435;-66
2021/11/10 03:09:32;;;;;;;38.65;21.08;;;;;;;;;;5052125;28;20032;-66
2021/11/10 03:11:59;;;;;;;38.42;21.30;;;;;;;;;;5051710;28;20517;-66
2021/11/10 03:14:29;;;;;;;44.60;21.98;;;;;;;;;;5051582;28;20090;-66
2021/11/10 03:16:55;;;;;;;40.05;21.15;;;;;;;;;;5051879;28;20057;-66
2021/11/10 03:19:21;;;;;;;47.05;21.30;;;;;;;;;;5050522;28;20021;-66
2021/11/10 03:21:48;;;;;;;49.35;21.77;;;;;;;;;;5051762;28;20398;-66
2021/11/10 03:24:14;;;;;;;42.25;23.25;;;;;;;;;;5050966;28;20036;-66
2021/11/10 03:26:40;;;;;;;41.97;21.13;;;;;;;;;;5050479;28;20020;-66
2021/11/10 03:29:06;;;;;;;40.80;21.60;;;;;;;;;;5051858;28;20368;-67
2021/11/10 03:31:34;;;;;;;41.80;19.55;;;;;;;;;;5048335;28;20044;-66
2021/11/10 03:34:00;;;;;;;41.75;21.73;;;;;;;;;;5050716;28;20048;-66
2021/11/10 03:36:26;;;;;;;40.53;21.48;;;;;;;;;;5050121;28;20033;-66
2021/11/10 03:38:52;;;;;;;35.22;17.45;;;;;;;;;;5050403;28;20408;-66
2021/11/10 03:41:19;;;;;;;47.13;20.25;;;;;;;;;;5051431;28;20096;-66
2021/11/10 03:43:45;;;;;;;50.95;20.90;;;;;;;;;;5050897;28;20108;-67
2021/11/10 03:46:11;;;;;;;54.33;22.13;;;;;;;;;;5049956;28;20449;-66
2021/11/10 03:48:37;;;;;;;39.33;19.33;;;;;;;;;;5050107;28;20029;-67
2021/11/10 03:51:03;;;;;;;40.70;18.58;;;;;;;;;;5052434;28;20024;-66
2021/11/10 03:53:31;;;;;;;42.25;19.73;;;;;;;;;;5051383;28;20098;-66
2021/11/10 03:55:56;;;;;;;44.38;20.35;;;;;;;;;;5053558;28;20029;-66
2021/11/10 03:58:22;;;;;;;37.45;19.17;;;;;;;;;;5052178;28;20037;-66
2021/11/10 04:00:48;;;;;;;35.42;17.88;;;;;;;;;;5051482;28;20021;-66
2021/11/10 04:03:14;;;;;;;37.83;18.75;;;;;;;;;;5084545;22;20466;-69
2021/11/10 04:05:42;;;;;;;44.35;21.05;;;;;;;;;;5041954;28;20020;-71
2021/11/10 04:08:08;;;;;;;51.63;22.23;;;;;;;;;;5048271;28;20024;-69
2021/11/10 04:10:34;;;;;;;55.28;24.20;;;;;;;;;;5054580;28;20094;-71
2021/11/10 04:13:00;;;;;;;41.47;21.42;;;;;;;;;;5070647;28;20569;-69
2021/11/10 04:15:26;;;;;;;35.38;19.35;;;;;;;;;;5075308;28;20474;-69
2021/11/10 04:17:52;;;;;;;36.33;18.63;;;;;;;;;;5075429;28;20097;-69
2021/11/10 04:20:19;;;;;;;40.08;19.88;;;;;;;;;;5075113;28;20033;-70
2021/11/10 04:22:45;;;;;;;37.50;19.98;;;;;;;;;;5074432;28;20020;-70
2021/11/10 04:25:11;;;;;;;42.70;21.67;;;;;;;;;;5075266;28;20016;-70
2021/11/10 04:27:37;;;;;;;44.83;22.35;;;;;;;;;;5074332;28;20028;-70
2021/11/10 04:30:03;;;;;;;45.80;21.75;;;;;;;;;;5056977;28;20024;-70
2021/11/10 04:32:29;;;;;;;42.60;21.45;;;;;;;;;;5074305;28;20109;-69
2021/11/10 04:34:55;;;;;;;40.10;21.05;;;;;;;;;;5075087;28;20113;-70
2021/11/10 04:37:21;;;;;;;43.03;21.23;;;;;;;;;;5056723;28;20021;-70
2021/11/10 04:39:47;;;;;;;44.58;22.60;;;;;;;;;;5074592;28;20039;-69
2021/11/10 04:42:14;;;;;;;38.55;21.10;;;;;;;;;;5073937;28;20036;-70
2021/11/10 04:44:40;;;;;;;40.13;21.08;;;;;;;;;;5074672;28;20012;-70
2021/11/10 04:47:06;;;;;;;45.15;23.90;;;;;;;;;;5074923;28;20020;-71
2021/11/10 04:49:32;;;;;;;48.42;27.77;;;;;;;;;;5074818;28;20025;-69
2021/11/10 04:51:58;;;;;;;49.00;27.75;;;;;;;;;;5074445;28;20060;-69
2021/11/10 04:54:30;;;;;;;47.30;26.75;;;;;;;;;;5074288;28;20406;-69
2021/11/10 04:56:56;;;;;;;52.00;28.20;;;;;;;;;;5056702;28;20040;-68
2021/11/10 04:59:22;;;;;;;48.88;25.67;;;;;;;;;;5074449;28;20033;-70
2021/11/10 05:02:23;;;;;;;47.30;27.05;;;;;;;;;;5074262;28;20073;-70
2021/11/10 05:04:37;;;;;;;48.90;29.20;;;;;;;;;;5074062;28;20031;-71
2021/11/10 05:07:04;;;;;;;48.08;29.05;;;;;;;;;;5074370;28;20017;-70
2021/11/10 05:09:30;;;;;;;46.42;29.55;;;;;;;;;;5056391;28;20435;-69
2021/11/10 05:11:56;;;;;;;43.10;27.50;;;;;;;;;;5074080;28;20029;-69
2021/11/10 05:14:24;;;;;;;45.70;27.92;;;;;;;;;;5073452;28;20390;-70
2021/11/10 05:16:51;;;;;;;43.33;28.38;;;;;;;;;;5073957;28;20021;-70
2021/11/10 05:19:17;;;;;;;43.63;27.38;;;;;;;;;;5074116;28;20111;-70
2021/11/10 05:21:43;;;;;;;44.50;28.13;;;;;;;;;;5055935;28;20023;-70
2021/11/10 05:24:09;;;;;;;43.88;28.08;;;;;;;;;;5055235;28;20397;-70
2021/11/10 05:26:37;;;;;;;40.50;26.90;;;;;;;;;;5055042;28;20029;-68
2021/11/10 05:29:03;;;;;;;43.08;26.45;;;;;;;;;;5073685;28;20023;-70
2021/11/10 05:31:29;;;;;;;38.75;23.50;;;;;;;;;;5066784;28;20033;-70
2021/11/10 05:33:55;;;;;;;42.28;23.48;;;;;;;;;;5046981;28;20067;-71
2021/11/10 05:36:21;;;;;;;40.95;21.73;;;;;;;;;;5054148;28;20048;-71
2021/11/10 05:38:47;;;;;;;32.90;22.40;;;;;;;;;;5055454;28;20024;-68
2021/11/10 05:41:13;;;;;;;35.47;22.20;;;;;;;;;;5072989;28;20052;-69
2021/11/10 05:43:39;;;;;;;34.97;23.10;;;;;;;;;;5054914;28;20017;-71
2021/11/10 05:46:05;;;;;;;35.05;23.38;;;;;;;;;;5073202;28;20549;-71
2021/11/10 05:48:31;;;;;;;35.15;22.90;;;;;;;;;;5073296;28;20021;-71
2021/11/10 05:50:58;;;;;;;32.95;22.65;;;;;;;;;;5074058;28;20020;-70
2021/11/10 05:53:26;;;;;;;35.10;21.92;;;;;;;;;;5075250;28;20065;-70
2021/11/10 05:55:53;;;;;;;33.05;21.50;;;;;;;;;;5074803;28;20482;-69
2021/11/10 05:58:22;;;;;;;35.15;23.23;;;;;;;;;;5073269;28;20032;-71
2021/11/10 06:00:49;;;;;;;36.47;24.15;;;;;;;;;;5055508;28;20029;-69
2021/11/10 06:03:15;;;;;;;39.90;25.77;;;;;;;;;;5072386;28;20025;-70
2021/11/10 06:05:41;;;;;;;35.08;24.67;;;;;;;;;;5073130;28;20025;-70
2021/11/10 06:08:07;;;;;;;36.83;25.50;;;;;;;;;;5054937;28;20043;-72
2021/11/10 06:10:34;;;;;;;39.53;27.88;;;;;;;;;;5072838;28;20024;-71
2021/11/10 06:12:59;;;;;;;39.63;26.48;;;;;;;;;;5072088;28;20016;-70
2021/11/10 06:15:25;;;;;;;37.30;26.20;;;;;;;;;;5072373;28;20134;-71
2021/11/10 06:17:51;;;;;;;43.83;27.70;;;;;;;;;;5072363;28;20050;-69
2021/11/10 06:20:17;;;;;;;40.72;27.75;;;;;;;;;;5054481;28;20072;-71
2021/11/10 06:22:44;;;;;;;46.17;29.08;;;;;;;;;;5055668;28;20087;-70
2021/11/10 06:25:10;;;;;;;42.85;29.08;;;;;;;;;;5072460;28;20103;-73
2021/11/10 06:27:37;;;;;;;38.42;26.92;;;;;;;;;;5071573;28;20505;-71
2021/11/10 06:30:03;;;;;;;37.65;26.42;;;;;;;;;;5072072;28;20486;-71
2021/11/10 06:32:29;;;;;;;39.65;25.55;;;;;;;;;;5071387;28;20028;-69
2021/11/10 06:34:55;;;;;;;40.45;27.02;;;;;;;;;;5072876;28;20074;-70
2021/11/10 06:37:21;;;;;;;37.72;24.65;;;;;;;;;;5054605;28;20037;-69
2021/11/10 06:39:47;;;;;;;38.60;26.58;;;;;;;;;;5054239;28;20033;-70
2021/11/10 06:42:13;;;;;;;34.00;24.77;;;;;;;;;;5053247;28;20051;-69
2021/11/10 06:44:39;;;;;;;38.42;24.55;;;;;;;;;;5072188;28;20012;-68
2021/11/10 06:47:06;;;;;;;41.53;24.75;;;;;;;;;;5054137;28;20402;-71
2021/11/10 06:49:32;;;;;;;40.45;25.67;;;;;;;;;;5072141;28;20044;-70
2021/11/10 06:51:58;;;;;;;49.55;26.02;;;;;;;;;;5071733;28;20067;-70
2021/11/10 06:54:24;;;;;;;53.53;27.38;;;;;;;;;;5052968;28;20021;-71
2021/11/10 06:56:51;;;;;;;83.88;34.70;;;;;;;;;;5072043;28;20095;-69
2021/11/10 06:59:17;;;;;;;88.70;35.25;;;;;;;;;;5072135;28;20032;-68
2021/11/10 07:01:43;;;;;;;82.18;37.30;;;;;;;;;;5071961;28;20024;-73
2021/11/10 07:04:09;;;;;;;94.70;35.97;;;;;;;;;;5071155;28;20033;-68
2021/11/10 07:06:36;;;;;;;96.10;36.88;;;;;;;;;;5071825;28;20111;-70
2021/11/10 07:09:04;;;;;;;90.97;37.40;;;;;;;;;;5071969;28;20038;-71
2021/11/10 07:11:31;;;;;;;89.80;34.80;;;;;;;;;;5071857;28;20094;-70
2021/11/10 07:13:57;;;;;;;80.78;33.08;;;;;;;;;;5052795;28;20020;-70
2021/11/10 07:16:23;;;;;;;74.72;31.63;;;;;;;;;;5071499;28;20036;-70
2021/11/10 07:18:49;;;;;;;68.60;28.90;;;;;;;;;;5071824;28;20024;-69
2021/11/10 07:21:15;;;;;;;68.22;28.27;;;;;;;;;;5071653;28;20028;-71
2021/11/10 07:23:41;;;;;;;63.38;28.65;;;;;;;;;;5070925;28;20059;-70
2021/11/10 07:26:07;;;;;;;64.60;30.98;;;;;;;;;;5071292;28;20021;-71
2021/11/10 07:28:33;;;;;;;74.38;30.20;;;;;;;;;;5071676;28;20134;-70
2021/11/10 07:30:59;;;;;;;68.05;30.63;;;;;;;;;;5071621;28;20089;-69
2021/11/10 07:33:25;;;;;;;66.20;30.55;;;;;;;;;;5070795;28;20024;-70
2021/11/10 07:35:51;;;;;;;70.25;30.98;;;;;;;;;;5071293;28;20032;-70
2021/11/10 07:38:19;;;;;;;51.65;27.00;;;;;;;;;;5070870;28;20024;-70
2021/11/10 07:40:46;;;;;;;37.78;23.05;;;;;;;;;;5070855;28;20103;-67
2021/11/10 07:43:12;;;;;;;29.20;19.63;;;;;;;;;;5052569;28;20044;-68
2021/11/10 07:45:41;;;;;;;30.15;20.90;;;;;;;;;;5071430;28;20020;-71
2021/11/10 07:48:09;;;;;;;28.55;19.58;;;;;;;;;;5070076;28;20013;-70
2021/11/10 07:50:36;;;;;;;26.90;19.88;;;;;;;;;;5047650;28;20032;-72
2021/11/10 07:53:02;;;;;;;27.85;21.05;;;;;;;;;;5062158;28;20479;-75
2021/11/10 07:55:28;;;;;;;28.15;19.83;;;;;;;;;;5065867;28;20013;-72
2021/11/10 07:57:54;;;;;;;31.70;20.23;;;;;;;;;;5070327;28;20063;-70
2021/11/10 08:00:21;;;;;;;26.23;20.70;;;;;;;;;;5049006;28;20033;-70
2021/11/10 08:02:47;;;;;;;27.67;20.15;;;;;;;;;;5069955;28;20020;-70
2021/11/10 08:05:14;;;;;;;27.02;19.55;;;;;;;;;;5053247;28;20020;-69
2021/11/10 08:07:40;;;;;;;26.58;19.95;;;;;;;;;;5062131;28;20025;-76
2021/11/10 08:10:07;;;;;;;30.90;20.75;;;;;;;;;;5065418;28;20025;-76
2021/11/10 08:12:36;;;;;;;27.33;20.25;;;;;;;;;;5070107;28;20486;-75
2021/11/10 08:15:03;;;;;;;29.85;20.52;;;;;;;;;;5053060;28;20067;-77
2021/11/10 08:17:29;;;;;;;28.58;20.65;;;;;;;;;;5052739;28;20033;-76
2021/11/10 08:19:55;;;;;;;27.38;20.63;;;;;;;;;;5070574;28;20029;-75
2021/11/10 08:22:21;;;;;;;28.83;19.40;;;;;;;;;;5051977;28;20334;-76
2021/11/10 08:24:49;;;;;;;25.85;19.30;;;;;;;;;;5071224;28;20017;-74
2021/11/10 08:27:15;;;;;;;54.45;28.25;;;;;;;;;;5071212;28;20020;-75
2021/11/10 08:29:41;;;;;;;28.55;19.05;;;;;;;;;;5071067;28;20027;-74
2021/11/10 08:32:08;;;;;;;27.50;19.95;;;;;;;;;;5052538;28;20436;-72
2021/11/10 08:34:34;;;;;;;34.88;21.80;;;;;;;;;;5053481;28;20406;-74
2021/11/10 08:37:00;;;;;;;26.83;19.08;;;;;;;;;;5071829;28;20032;-75
2021/11/10 08:39:26;;;;;;;91.22;43.33;;;;;;;;;;5071262;28;20513;-74
2021/11/10 08:41:52;;;;;;;32.90;21.48;;;;;;;;;;5052543;28;20024;-72
2021/11/10 08:44:18;;;;;;;29.42;18.25;;;;;;;;;;5052125;28;20099;-73
2021/11/10 08:46:44;;;;;;;23.88;17.17;;;;;;;;;;5070789;28;20386;-72
2021/11/10 08:49:11;;;;;;;25.63;18.25;;;;;;;;;;5052708;28;20027;-72
2021/11/10 08:51:38;;;;;;;21.65;15.73;;;;;;;;;;5070474;28;20035;-71
2021/11/10 08:54:04;;;;;;;29.33;16.35;;;;;;;;;;5051742;28;20470;-72
2021/11/10 08:56:30;;;;;;;22.08;15.65;;;;;;;;;;5070557;28;20031;-74
2021/11/10 08:58:57;;;;;;;40.72;22.67;;;;;;;;;;5070434;28;20394;-70
2021/11/10 09:01:23;;;;;;;20.83;14.75;;;;;;;;;;5053829;28;20150;-72
2021/11/10 09:03:49;;;;;;;23.42;15.95;;;;;;;;;;5073542;28;20494;-72
2021/11/10 09:06:16;;;;;;;21.23;15.77;;;;;;;;;;5074278;28;20107;-72
2021/11/10 09:08:41;;;;;;;30.10;18.77;;;;;;;;;;5074169;28;20028;-69
2021/11/10 09:11:08;;;;;;;22.52;15.50;;;;;;;;;;5074299;28;20070;-69
2021/11/10 09:13:34;;;;;;;20.48;16.55;;;;;;;;;;5073173;28;20028;-70
2021/11/10 09:16:00;;;;;;;26.35;15.93;;;;;;;;;;5073950;28;20028;-70
2021/11/10 09:18:26;;;;;;;22.13;15.80;;;;;;;;;;5073885;28;20474;-71
2021/11/10 09:20:52;;;;;;;20.92;15.32;;;;;;;;;;5073830;28;20035;-77
2021/11/10 09:23:20;;;;;;;18.75;14.75;;;;;;;;;;5055253;28;20100;-77
2021/11/10 09:25:46;;;;;;;19.63;14.07;;;;;;;;;;5055790;28;20115;-77
2021/11/10 09:28:14;;;;;;;26.35;16.65;;;;;;;;;;5055761;28;20048;-76
2021/11/10 09:30:41;;;;;;;20.65;14.60;;;;;;;;;;5073778;28;20470;-76
2021/11/10 09:33:08;;;;;;;23.70;15.90;;;;;;;;;;5073173;28;20421;-77
2021/11/10 09:35:35;;;;;;;20.20;15.43;;;;;;;;;;5073536;28;20017;-74
2021/11/10 09:38:02;;;;;;;21.00;14.82;;;;;;;;;;5073514;28;20501;-75
2021/11/10 09:40:29;;;;;;;19.20;13.90;;;;;;;;;;5055654;28;20029;-72
2021/11/10 09:42:56;;;;;;;33.88;18.35;;;;;;;;;;5072671;28;20024;-72
2021/11/10 09:45:22;;;;;;;21.20;15.10;;;;;;;;;;5073647;28;20091;-71
2021/11/10 09:47:49;;;;;;;23.95;14.73;;;;;;;;;;5055386;28;20025;-72
2021/11/10 09:50:17;;;;;;;20.23;14.20;;;;;;;;;;5073447;28;20036;-69
2021/11/10 09:52:43;;;;;;;23.83;15.40;;;;;;;;;;5073046;28;20024;-71
2021/11/10 09:55:10;;;;;;;27.55;17.15;;;;;;;;;;5074346;28;20020;-70
2021/11/10 09:57:36;;;;;;;20.98;15.15;;;;;;;;;;5056129;28;20086;-72
2021/11/10 10:00:06;;;;;;;26.45;16.33;;;;;;;;;;5072633;28;20032;-71
2021/11/10 10:02:33;;;;;;;78.00;38.90;;;;;;;;;;5087104;22;20079;-69
2021/11/10 10:04:59;;;;;;;23.13;15.98;;;;;;;;;;5036101;28;20055;-69
2021/11/10 10:07:26;;;;;;;23.17;15.95;;;;;;;;;;5033514;28;20021;-70
2021/11/10 10:09:52;;;;;;;21.75;15.00;;;;;;;;;;5032988;28;20103;-70
2021/11/10 10:12:19;;;;;;;18.83;14.77;;;;;;;;;;5018213;28;20025;-70
2021/11/10 10:14:47;;;;;;;18.80;14.70;;;;;;;;;;5013195;28;20579;-70
2021/11/10 10:17:30;;;;;;;20.85;14.70;;;;;;;;;;5013095;28;20491;-70
2021/11/10 10:19:56;;;;;;;24.58;13.82;;;;;;;;;;4999035;28;20065;-70
2021/11/10 10:22:22;;;;;;;22.40;14.88;;;;;;;;;;5008966;28;20050;-70
2021/11/10 10:24:52;;;;;;;20.98;15.63;;;;;;;;;;5013250;28;20018;-70
2021/11/10 10:27:26;;;;;;;19.08;13.80;;;;;;;;;;5013101;28;20018;-69
2021/11/10 10:30:12;;;;;;;19.00;14.05;;;;;;;;;;5013321;28;20495;-69
2021/11/10 10:32:38;;;;;;;19.35;13.93;;;;;;;;;;5011958;28;20108;-69
2021/11/10 10:35:23;;;;;;;20.20;14.68;;;;;;;;;;5012941;28;20025;-70
2021/11/10 10:37:52;;;;;;;19.88;14.85;;;;;;;;;;5012834;28;20057;-69
2021/11/10 10:40:19;;;;;;;28.17;17.30;;;;;;;;;;5012822;28;20057;-69
2021/11/10 10:42:45;;;;;;;19.75;15.38;;;;;;;;;;5010632;28;20017;-69
2021/11/10 10:45:30;;;;;;;21.67;14.40;;;;;;;;;;5012760;28;20494;-69
2021/11/10 10:47:59;;;;;;;18.00;13.23;;;;;;;;;;5012395;28;20056;-69
2021/11/10 10:50:32;;;;;;;20.73;14.48;;;;;;;;;;5012548;28;20064;-69
2021/11/10 10:52:58;;;;;;;19.38;14.23;;;;;;;;;;5011639;28;20026;-69
2021/11/10 10:55:31;;;;;;;19.88;14.85;;;;;;;;;;5002651;28;20029;-69
2021/11/10 10:57:58;;;;;;;20.67;14.30;;;;;;;;;;5005573;28;20487;-69
2021/11/10 11:00:27;;;;;;;22.90;14.43;;;;;;;;;;5012165;28;20053;-70
2021/11/10 11:02:53;;;;;;;15.90;13.18;;;;;;;;;;5010418;28;20026;-70
2021/11/10 11:05:38;;;;;;;17.73;13.48;;;;;;;;;;5012565;28;20380;-70
2021/11/10 11:08:22;;;;;;;18.38;13.73;;;;;;;;;;5012431;28;20080;-70
2021/11/10 11:10:48;;;;;;;18.50;13.90;;;;;;;;;;4996310;28;20032;-69
2021/11/10 11:13:20;;;;;;;21.35;13.93;;;;;;;;;;5011036;28;20522;-69
2021/11/10 11:16:06;;;;;;;21.15;14.15;;;;;;;;;;5012122;28;20037;-69
2021/11/10 11:18:32;;;;;;;20.58;13.75;;;;;;;;;;5011909;28;20080;-69
2021/11/10 11:20:57;;;;;;;18.02;13.23;;;;;;;;;;5011956;28;20022;-69
2021/11/10 11:23:39;;;;;;;20.13;14.15;;;;;;;;;;5009234;28;20021;-69
2021/11/10 11:26:06;;;;;;;18.50;12.82;;;;;;;;;;5011851;28;20066;-69
2021/11/10 11:28:37;;;;;;;18.63;13.27;;;;;;;;;;5011716;28;20447;-69
2021/11/10 11:31:03;;;;;;;16.05;12.52;;;;;;;;;;5011779;28;20021;-70
2021/11/10 11:33:31;;;;;;;18.80;13.23;;;;;;;;;;5010967;28;20569;-69
2021/11/10 11:35:57;;;;;;;17.63;13.40;;;;;;;;;;5011655;28;20029;-70
2021/11/10 11:38:25;;;;;;;17.40;13.93;;;;;;;;;;5011151;28;20042;-70
2021/11/10 11:40:52;;;;;;;17.98;12.77;;;;;;;;;;5011620;28;20369;-69
2021/11/10 11:43:19;;;;;;;18.80;13.18;;;;;;;;;;5011098;28;20104;-70
2021/11/10 11:45:46;;;;;;;16.77;12.93;;;;;;;;;;5012063;28;20021;-70
2021/11/10 11:48:13;;;;;;;20.08;13.38;;;;;;;;;;5010171;28;20026;-70
2021/11/10 11:50:39;;;;;;;18.92;13.80;;;;;;;;;;5011416;28;20036;-70
2021/11/10 11:53:05;;;;;;;17.17;12.70;;;;;;;;;;5010776;28;20037;-70
2021/11/10 11:55:37;;;;;;;20.48;13.65;;;;;;;;;;5011239;28;20481;-70
2021/11/10 11:58:08;;;;;;;17.27;13.23;;;;;;;;;;5011115;28;20026;-69
2021/11/10 12:00:35;;;;;;;19.10;13.40;;;;;;;;;;5009616;28;20061;-69
2021/11/10 12:03:03;;;;;;;17.88;13.35;;;;;;;;;;5010618;28;20026;-70
2021/11/10 12:05:29;;;;;;;17.48;13.35;;;;;;;;;;5001542;28;20036;-70
2021/11/10 12:07:57;;;;;;;20.10;13.55;;;;;;;;;;5004613;28;20503;-70
2021/11/10 12:10:23;;;;;;;18.20;13.18;;;;;;;;;;4994181;28;20110;-70
2021/11/10 12:13:20;;;;;;;18.15;13.80;;;;;;;;;;5010707;28;20094;-69
2021/11/10 12:16:00;;;;;;;21.95;14.27;;;;;;;;;;4991509;28;20030;-69
2021/11/10 12:18:27;;;;;;;18.17;14.20;;;;;;;;;;5011115;28;20025;-69
2021/11/10 12:20:58;;;;;;;19.90;14.52;;;;;;;;;;5011276;28;20475;-69
2021/11/10 12:23:24;;;;;;;19.15;14.68;;;;;;;;;;5009535;28;20018;-69
2021/11/10 12:26:03;;;;;;;20.95;14.85;;;;;;;;;;5011573;28;20038;-69
2021/11/10 12:28:48;;;;;;;19.05;14.80;;;;;;;;;;5011332;28;20034;-69
2021/11/10 12:31:27;;;;;;;22.88;14.32;;;;;;;;;;5011300;28;20488;-69
2021/11/10 12:33:53;;;;;;;20.33;14.35;;;;;;;;;;5010541;28;20484;-70
2021/11/10 12:36:19;;;;;;;19.55;14.82;;;;;;;;;;5014866;28;20052;-69
2021/11/10 12:38:48;;;;;;;23.55;16.58;;;;;;;;;;5014986;28;20014;-69
2021/11/10 12:41:14;;;;;;;19.05;14.80;;;;;;;;;;5015269;28;20030;-69
2021/11/10 12:43:41;;;;;;;19.25;15.73;;;;;;;;;;5014516;28;20484;-69
2021/11/10 12:46:11;;;;;;;18.98;15.07;;;;;;;;;;5015147;28;20509;-66
2021/11/10 12:48:41;;;;;;;21.13;15.82;;;;;;;;;;5015031;28;20018;-67
2021/11/10 12:51:27;;;;;;;21.23;16.02;;;;;;;;;;5015496;28;20021;-67
2021/11/10 12:53:53;;;;;;;24.85;16.55;;;;;;;;;;5014512;28;20380;-67
2021/11/10 12:56:41;;;;;;;24.00;17.40;;;;;;;;;;5014927;28;20033;-68
2021/11/10 12:59:09;;;;;;;27.27;17.08;;;;;;;;;;5004072;28;20025;-67
2021/11/10 13:01:36;;;;;;;27.63;18.35;;;;;;;;;;5013946;28;20483;-74
2021/11/10 13:04:02;;;;;;;21.55;17.00;;;;;;;;;;5013918;28;20034;-73
2021/11/10 13:06:33;;;;;;;21.98;16.40;;;;;;;;;;5013630;28;20121;-74
2021/11/10 13:09:07;;;;;;;29.77;19.52;;;;;;;;;;5014816;28;20113;-74
2021/11/10 13:11:34;;;;;;;22.95;16.55;;;;;;;;;;5015099;28;20104;-73
2021/11/10 13:14:13;;;;;;;22.95;18.25;;;;;;;;;;5005220;28;20113;-74
2021/11/10 13:16:56;;;;;;;27.08;17.65;;;;;;;;;;5015882;28;20209;-73
2021/11/10 13:19:37;;;;;;;24.52;17.05;;;;;;;;;;5014230;28;20022;-69
2021/11/10 13:22:03;;;;;;;27.13;18.30;;;;;;;;;;5000559;28;20391;-69
2021/11/10 13:24:29;;;;;;;26.75;17.52;;;;;;;;;;5010326;28;20036;-69
2021/11/10 13:26:55;;;;;;;26.08;18.88;;;;;;;;;;5014349;28;20017;-69
2021/11/10 13:29:22;;;;;;;26.08;18.35;;;;;;;;;;5014196;28;20021;-72
2021/11/10 13:31:50;;;;;;;25.05;17.75;;;;;;;;;;5013165;28;20026;-73
2021/11/10 13:34:16;;;;;;;25.67;18.20;;;;;;;;;;5013629;28;20026;-74
2021/11/10 13:36:42;;;;;;;23.52;17.67;;;;;;;;;;5014003;28;20101;-73
2021/11/10 13:39:12;;;;;;;30.17;19.02;;;;;;;;;;5012893;28;20046;-73
2021/11/10 13:41:49;;;;;;;27.48;17.90;;;;;;;;;;5014055;28;20144;-75
2021/11/10 13:44:23;;;;;;;32.00;20.05;;;;;;;;;;5012112;28;20360;-74
2021/11/10 13:46:49;;;;;;;27.85;19.17;;;;;;;;;;5013058;28;20083;-75
2021/11/10 13:49:19;;;;;;;26.30;18.15;;;;;;;;;;5007822;28;20030;-75
2021/11/10 13:51:50;;;;;;;25.98;18.25;;;;;;;;;;5002316;28;20022;-74
2021/11/10 13:54:16;;;;;;;24.77;18.08;;;;;;;;;;4998091;28;20503;-74
2021/11/10 13:56:42;;;;;;;28.23;18.67;;;;;;;;;;5011041;28;20029;-74
2021/11/10 13:59:13;;;;;;;26.85;18.00;;;;;;;;;;5011483;28;20036;-73
2021/11/10 14:01:47;;;;;;;29.10;18.90;;;;;;;;;;5020209;28;20061;-74
2021/11/10 14:04:15;;;;;;;26.27;18.75;;;;;;;;;;5022154;28;20364;-74
2021/11/10 14:07:05;;;;;;;27.45;19.15;;;;;;;;;;5013992;28;20117;-72
2021/11/10 14:09:32;;;;;;;29.10;18.88;;;;;;;;;;5004103;28;20030;-72
2021/11/10 14:12:17;;;;;;;30.55;18.90;;;;;;;;;;5014031;28;20098;-73
2021/11/10 14:14:43;;;;;;;28.67;19.08;;;;;;;;;;5013256;28;20411;-74
2021/11/10 14:17:09;;;;;;;29.42;19.42;;;;;;;;;;5008054;28;20026;-72
2021/11/10 14:19:35;;;;;;;24.33;17.83;;;;;;;;;;5001919;28;20097;-73